Latest Weather Observations for Macquarie Island*

IDT60801

Issued at 6:32 pm EDT Sunday 11 December 2016 (issued every 30 minutes, with the page automatically refreshed every 10 minutes)

About weather observations | Map of weather stations | Latest weather observations for ANT | Other Formats
Station Details ID: 300004 Name: MACQUARIE ISLAND Lat: -54.50 Lon: 158.94 Height: 6.0 m
Data from the previous 72 hours. | See also: Recent months at Macquarie Island*
Date/Time
EDT
Temp
°C
App
Temp
°C
Dew
Point
°C
Rel
Hum
%
Delta-T
°C
Wind Press
QNH
hPa
Press
MSL
hPa
Rain since
9am
mm
Dir  Spd
km/h
Gust
km/h
Spd
kts
Gust
kts
11/06:30pm 6.5 -1.0 3.7 82 1.2 WNW 32 39 17 21 1002.5 - 1.4
11/06:00pm 6.6 -0.8 3.9 83 1.2 WNW 32 39 17 21 1002.3 1002.6 1.4
11/05:30pm 7.3 0.3 4.1 80 1.4 W 30 39 16 21 1002.1 - 1.4
11/05:00pm 7.5 0.0 4.6 82 1.3 WNW 33 46 18 25 1001.8 - 1.4
11/04:30pm 7.7 0.3 5.0 83 1.2 W 33 39 18 21 1001.6 - 1.4
11/04:00pm 7.7 1.0 5.7 87 0.9 WNW 30 39 16 21 1001.4 - 1.4
11/03:30pm 7.5 1.1 5.3 86 1.0 NW 28 32 15 17 1001.2 - 1.0
11/03:00pm 6.4 -1.0 4.1 85 1.0 W 32 41 17 22 1001.0 1001.3 0.8
11/02:30pm 8.2 1.8 5.0 80 1.4 NW 28 33 15 18 1000.7 - 0.2
11/02:00pm 8.4 1.3 5.3 81 1.4 WNW 32 35 17 19 1000.5 - 0.0
11/01:30pm 9.2 2.0 5.2 76 1.8 WNW 32 39 17 21 1000.2 - 0.0
11/01:00pm 9.0 1.8 5.2 77 1.7 WNW 32 37 17 20 1000.0 - 0.0
11/12:30pm 8.8 1.6 5.0 77 1.7 W 32 39 17 21 999.8 - 0.0
11/12:00pm 9.4 2.7 5.8 78 1.7 W 30 39 16 21 999.6 999.9 0.0
11/11:30am 8.4 1.2 5.0 79 1.5 W 32 37 17 20 999.4 - 0.0
11/11:00am 8.2 1.8 5.0 80 1.4 NW 28 33 15 18 999.0 - 0.0
11/10:30am 8.0 0.9 5.3 83 1.2 WNW 32 39 17 21 998.8 - 0.0
11/10:00am 7.9 0.5 4.1 77 1.6 WNW 32 43 17 23 998.5 - 0.0
11/09:30am 8.2 1.4 5.0 80 1.4 W 30 39 16 21 998.2 - 0.0
11/09:00am 7.2 -0.3 4.5 83 1.2 W 33 43 18 23 997.8 998.1 2.2
11/08:30am 6.6 -2.5 3.8 82 1.2 W 41 46 22 25 997.7 - 2.2
11/08:00am 6.9 -0.5 4.0 82 1.2 W 32 37 17 20 997.2 - 2.2
11/07:30am 6.8 -1.6 3.6 80 1.4 W 37 48 20 26 996.8 - 2.2
11/07:03am 6.0 -3.6 3.5 84 1.0 W 43 69 23 37 996.2 - 2.2
11/07:00am 6.0 -3.5 3.7 85 1.0 W 43 59 23 32 996.2 - 2.2
11/06:30am 5.4 -4.1 4.1 91 0.6 W 43 56 23 30 995.9 - 2.2
11/06:00am 5.4 -3.6 4.4 93 0.4 W 41 50 22 27 995.4 995.7 2.2
11/05:30am 5.5 -3.9 4.6 94 0.4 W 43 52 23 28 995.0 - 2.2
11/05:19am 5.8 -4.1 4.9 94 0.4 W 46 54 25 29 994.7 - 2.0
11/05:00am 5.8 -2.0 4.9 94 0.4 N 35 41 19 22 994.3 - 1.6
11/04:30am 5.6 -1.3 4.7 94 0.4 N 30 39 16 21 994.4 - 1.2
11/04:00am 5.3 -2.0 4.4 94 0.4 N 32 37 17 20 994.6 - 0.8
11/03:30am 5.2 -1.8 4.2 93 0.4 N 30 39 16 21 994.8 - 0.8
11/03:00am 5.1 -2.3 3.9 92 0.5 N 32 37 17 20 995.0 995.3 0.8
11/02:30am 4.9 -1.4 3.6 91 0.5 N 26 32 14 17 995.4 - 0.6
11/02:00am 4.8 -2.0 3.1 89 0.7 N 28 33 15 18 995.8 - 0.4
11/01:30am 4.6 -2.3 2.3 85 0.9 N 28 33 15 18 996.1 - 0.2
11/01:00am 4.7 -2.3 1.9 82 1.1 N 28 33 15 18 996.4 - 0.0
11/12:30am 4.8 -2.3 1.3 78 1.4 N 28 33 15 18 996.6 - 0.0
11/12:00am 4.9 -2.2 1.4 78 1.4 N 28 32 15 17 996.9 997.2 0.0
 
Date/Time
EDT
Temp
°C
App
Temp
°C
Dew
Point
°C
Rel
Hum
%
Delta-T
°C
Wind Press
QNH
hPa
Press
MSL
hPa
Rain since
9am
mm
Dir  Spd
km/h
Gust
km/h
Spd
kts
Gust
kts
10/11:30pm 4.6 -2.2 0.9 77 1.4 NNW 26 30 14 16 997.2 - 0.0
10/11:00pm 4.4 -2.8 0.4 75 1.5 NNW 28 33 15 18 997.5 - 0.0
10/10:30pm 4.6 -1.0 1.1 78 1.4 NNW 20 30 11 16 997.7 - 0.0
10/10:00pm 4.4 -0.7 0.7 77 1.4 NNW 17 20 9 11 997.8 - 0.0
10/09:30pm 4.3 -0.9 0.3 75 1.5 NNW 17 20 9 11 997.9 - 0.0
10/09:00pm 3.9 -0.2 -0.5 73 1.6 WNW 11 17 6 9 998.1 998.4 0.0
10/08:30pm 4.1 -1.1 -0.1 74 1.6 NW 17 20 9 11 997.9 - 0.0
10/08:00pm 4.3 -0.5 0.5 76 1.5 WNW 15 20 8 11 997.9 - 0.0
10/07:30pm 4.3 0.3 0.5 76 1.5 W 11 15 6 8 997.8 - 0.0
10/07:00pm 4.0 -0.4 0.2 76 1.4 W 13 19 7 10 997.6 - 0.0
10/06:30pm 4.9 0.2 1.2 77 1.4 WNW 15 24 8 13 997.5 - 0.0
10/06:00pm 5.2 0.9 0.8 73 1.7 W 13 20 7 11 997.5 997.8 0.0
10/05:30pm 5.7 1.4 1.1 72 1.8 W 13 20 7 11 997.3 - 0.0
10/05:00pm 6.0 1.0 1.2 71 1.9 W 17 24 9 13 997.1 - 0.0
10/04:30pm 5.9 1.5 0.5 68 2.1 W 13 20 7 11 997.2 - 0.0
10/04:00pm 6.5 1.4 0.8 67 2.2 WSW 17 30 9 16 997.1 - 0.0
10/03:30pm 6.6 1.6 1.3 69 2.1 W 17 26 9 14 996.9 - 0.0
10/03:00pm 5.9 0.8 0.7 69 2.1 WSW 17 26 9 14 996.7 997.0 0.0
10/02:30pm 5.5 0.3 0.3 69 2.0 SW 17 26 9 14 996.4 - 0.0
10/02:00pm 6.5 0.9 1.4 70 2.0 W 20 28 11 15 996.2 - 0.0
10/01:30pm 5.9 0.9 1.2 72 1.9 SSW 17 30 9 16 996.2 - 0.0
10/01:00pm 5.8 0.2 1.3 73 1.8 SSW 20 35 11 19 996.0 - 0.0
10/12:30pm 5.7 0.3 1.1 72 1.8 SSW 19 28 10 15 995.9 - 0.0
10/12:00pm 5.3 -0.2 1.6 77 1.5 SW 20 35 11 19 995.6 995.9 0.0
10/11:30am 5.4 -0.5 1.5 76 1.5 SSW 22 33 12 18 995.5 - 0.0
10/11:00am 4.6 -2.6 0.9 77 1.4 SSW 28 43 15 23 995.4 - 0.0
10/10:30am 4.2 -3.3 1.1 80 1.2 S 30 41 16 22 994.9 - 0.0
10/10:00am 4.3 -4.1 1.5 82 1.1 S 35 43 19 23 994.4 - 0.0
10/09:30am 4.1 -4.3 1.5 83 1.0 S 35 46 19 25 994.1 - 0.0
10/09:24am 4.2 -2.9 1.4 82 1.1 S 28 46 15 25 994.1 - 0.0
10/09:00am 4.1 -2.6 1.5 83 1.0 S 26 35 14 19 994.3 994.6 13.6
10/08:30am 4.0 -2.3 1.5 84 1.0 S 24 35 13 19 993.9 - 13.6
10/08:00am 3.8 -4.0 1.5 85 0.9 S 32 41 17 22 993.6 - 13.6
10/07:30am 3.7 -4.1 1.6 86 0.8 S 32 44 17 24 993.1 - 13.6
10/07:00am 3.5 -4.5 1.5 87 0.8 S 33 46 18 25 992.4 - 13.6
10/06:30am 3.4 -4.4 1.4 87 0.8 S 32 43 17 23 991.7 - 13.6
10/06:03am 3.3 -4.5 1.5 88 0.7 S 32 50 17 27 991.4 - 13.6
10/06:00am 3.4 -4.0 1.6 88 0.7 S 30 37 16 20 991.3 991.6 13.6
10/05:30am 3.4 -4.6 1.6 88 0.7 S 33 46 18 25 990.8 - 13.6
10/05:00am 3.4 -4.6 1.6 88 0.7 S 33 48 18 26 990.4 - 13.6
10/04:30am 3.4 -5.4 1.6 88 0.7 S 37 50 20 27 990.0 - 13.6
10/04:00am 3.5 -4.3 1.9 89 0.6 S 32 43 17 23 989.8 - 13.6
10/03:30am 3.4 -5.4 1.6 88 0.7 S 37 57 20 31 989.5 - 13.6
10/03:00am 3.8 -4.5 2.0 88 0.7 S 35 46 19 25 989.0 989.3 13.6
10/02:43am 3.6 -4.2 2.0 89 0.6 S 32 52 17 28 989.0 - 13.6
10/02:30am 3.7 -4.6 2.1 89 0.6 S 35 44 19 24 988.8 - 13.6
10/02:12am 3.6 -3.8 2.1 90 0.6 S 30 50 16 27 988.7 - 13.6
10/02:00am 3.7 -4.2 2.2 90 0.6 S 33 50 18 27 988.6 - 13.6
10/01:30am 3.6 -5.1 2.3 91 0.5 S 37 48 20 26 988.3 - 13.6
10/01:00am 3.9 -3.7 2.6 91 0.5 S 32 43 17 23 987.7 - 13.6
10/12:30am 3.9 -4.3 2.6 91 0.5 S 35 44 19 24 987.2 - 13.6
10/12:00am 4.0 -3.6 2.7 91 0.5 S 32 50 17 27 986.9 987.2 13.6
 
Date/Time
EDT
Temp
°C
App
Temp
°C
Dew
Point
°C
Rel
Hum
%
Delta-T
°C
Wind Press
QNH
hPa
Press
MSL
hPa
Rain since
9am
mm
Dir  Spd
km/h
Gust
km/h
Spd
kts
Gust
kts
09/11:51pm 4.0 -2.9 2.7 91 0.5 S 28 50 15 27 986.7 - 13.6
09/11:30pm 4.1 -3.1 2.8 91 0.5 S 30 43 16 23 986.6 - 13.6
09/11:00pm 3.9 -3.7 2.7 92 0.5 S 32 44 17 24 986.4 - 13.6
09/10:30pm 4.0 -2.1 2.8 92 0.5 S 24 35 13 19 986.2 - 13.6
09/10:00pm 3.9 -3.4 2.7 92 0.5 S 30 44 16 24 985.8 - 13.6
09/09:30pm 4.0 -3.2 2.8 92 0.5 S 30 41 16 22 985.4 - 13.6
09/09:00pm 4.1 -2.0 2.9 92 0.5 S 24 33 13 18 985.1 985.4 13.6
09/08:30pm 4.2 -2.6 3.0 92 0.5 S 28 37 15 20 984.3 - 13.6
09/08:00pm 4.1 -3.7 2.9 92 0.5 S 33 46 18 25 983.4 - 13.6
09/07:34pm 4.1 -3.5 3.1 93 0.4 S 32 50 17 27 982.8 - 13.6
09/07:30pm 4.2 -3.5 3.2 93 0.4 S 33 50 18 27 982.7 - 13.6
09/07:00pm 3.8 -4.4 2.9 94 0.4 S 35 57 19 31 981.6 - 13.6
09/06:59pm 3.8 -4.0 2.9 94 0.4 S 33 56 18 30 981.6 - 13.6
09/06:30pm 3.7 -4.5 2.8 94 0.4 S 35 50 19 27 981.5 - 13.6
09/06:00pm 3.4 -6.4 2.5 94 0.4 S 43 54 23 29 981.2 981.5 13.4
09/05:46pm 3.4 -6.0 2.5 94 0.4 S 41 59 22 32 981.1 - 13.2
09/05:30pm 3.3 -7.0 2.6 95 0.3 S 46 61 25 33 980.9 - 13.0
09/05:00pm 3.5 -8.7 2.8 95 0.3 S 56 69 30 37 980.3 - 12.2
09/04:30pm 3.6 -9.5 2.9 95 0.3 S 61 74 33 40 979.8 - 11.6
09/04:03pm 3.7 -8.1 3.0 95 0.3 S 54 72 29 39 979.6 - 10.8
09/04:00pm 3.6 -8.6 2.9 95 0.3 S 56 72 30 39 979.4 - 10.6
09/03:30pm 3.5 -9.2 2.8 95 0.3 S 59 72 32 39 979.4 - 9.2
09/03:00pm 3.7 -8.4 3.0 95 0.3 S 56 74 30 40 979.2 979.5 8.8
09/02:54pm 3.8 -8.3 3.1 95 0.3 S 56 74 30 40 979.3 - 8.6
09/02:30pm 3.8 -8.5 3.1 95 0.3 S 57 72 31 39 979.2 - 8.2
09/02:00pm 4.0 -7.7 3.4 96 0.2 S 54 65 29 35 979.3 - 8.0
09/01:30pm 4.2 -6.3 3.6 96 0.2 S 48 61 26 33 980.2 - 7.2
09/01:00pm 4.5 -6.3 3.9 96 0.3 S 50 61 27 33 980.2 - 6.6
09/12:30pm 4.4 -6.5 3.8 96 0.2 S 50 59 27 32 980.7 - 6.0
09/12:00pm 4.6 -6.6 4.0 96 0.3 S 52 63 28 34 980.5 980.8 5.6
09/11:30am 4.7 -5.7 4.1 96 0.3 S 48 59 26 32 981.0 - 5.0
09/11:00am 4.9 -4.7 4.3 96 0.3 S 44 57 24 31 981.2 - 4.6
09/10:30am 5.1 -4.5 4.5 96 0.3 S 44 54 24 29 981.4 - 4.2
09/10:00am 5.7 -1.7 5.1 96 0.3 S 33 41 18 22 981.7 - 3.0
09/09:30am 6.1 0.5 5.5 96 0.3 S 24 35 13 19 981.9 - 1.6
09/09:00am 6.9 5.6 6.2 95 0.3 NNW 2 15 1 8 982.2 982.5 26.2
09/08:30am 7.7 7.0 7.1 96 0.3 CALM 0 4 0 2 982.2 - 25.6
09/08:00am 7.1 6.3 6.5 96 0.3 CALM 0 0 0 0 982.4 - 25.4
09/07:30am 7.3 4.1 6.7 96 0.3 NW 13 15 7 8 982.8 - 24.6
09/07:00am 7.3 4.1 6.7 96 0.3 WNW 13 15 7 8 983.2 - 23.6
09/06:30am 7.5 3.2 6.9 96 0.3 NNW 19 22 10 12 983.7 - 22.4
09/06:00am 7.5 3.6 6.9 96 0.3 NW 17 24 9 13 984.3 984.6 21.0
09/05:30am 6.9 3.2 6.3 96 0.3 NW 15 20 8 11 984.7 - 19.0
09/05:00am 7.0 3.7 6.4 96 0.3 NW 13 15 7 8 985.2 - 17.2
09/04:30am 7.3 0.8 6.7 96 0.3 N 30 37 16 20 985.7 - 15.2
09/04:00am 6.9 1.1 6.3 96 0.3 N 26 32 14 17 986.0 - 13.6
09/03:30am 6.7 0.9 6.1 96 0.3 N 26 30 14 16 986.1 - 12.2
09/03:00am 6.8 -0.2 6.2 96 0.3 N 32 35 17 19 986.5 986.8 11.0
09/02:30am 6.8 2.1 6.2 96 0.3 NNW 20 24 11 13 987.0 - 10.4
09/02:00am 6.9 0.7 6.3 96 0.3 N 28 32 15 17 987.4 - 10.0
09/01:30am 7.0 -0.1 6.4 96 0.3 N 33 41 18 22 987.8 - 9.4
09/01:00am 6.7 0.5 6.1 96 0.3 N 28 33 15 18 988.2 - 9.0
09/12:30am 6.8 -0.2 6.2 96 0.3 N 32 35 17 19 988.6 - 8.6
09/12:00am 6.6 1.1 6.0 96 0.3 NNW 24 28 13 15 988.9 989.2 8.2
 
Date/Time
EDT
Temp
°C
App
Temp
°C
Dew
Point
°C
Rel
Hum
%
Delta-T
°C
Wind Press
QNH
hPa
Press
MSL
hPa
Rain since
9am
mm
Dir  Spd
km/h
Gust
km/h
Spd
kts
Gust
kts
08/11:30pm 6.8 -0.3 6.2 96 0.3 N 33 37 18 20 989.2 - 8.0
08/11:00pm 7.0 -0.5 6.4 96 0.3 N 35 41 19 22 989.4 - 7.2
08/10:30pm 6.8 -0.3 6.2 96 0.3 N 33 37 18 20 989.5 - 6.8
08/10:00pm 6.8 -0.3 6.2 96 0.3 NNW 33 37 18 20 989.8 - 6.8
08/09:30pm 6.9 -1.4 6.3 96 0.3 N 39 43 21 23 989.9 - 6.4
08/09:00pm 6.8 -1.5 6.1 95 0.3 N 39 41 21 22 990.2 990.5 6.2
08/08:30pm 6.9 -1.8 6.2 95 0.3 N 41 46 22 25 990.2 - 5.8
08/08:00pm 6.9 -1.8 6.2 95 0.3 NNW 41 46 22 25 990.0 - 5.2
08/07:30pm 6.7 -0.3 6.0 95 0.3 NNW 32 35 17 19 990.1 - 4.6
08/07:00pm 6.8 -0.2 6.1 95 0.3 NNW 32 35 17 19 990.2 - 4.4

Other Formats:

Comma delimited format used in spreadsheet applications
http://www.bom.gov.au/fwo/IDT60803/IDT60803.94998.axf

JavaScript Object Notation format (JSON) in row-major order
http://www.bom.gov.au/fwo/IDT60803/IDT60803.94998.json